Time;durP1;ratioP1;P1;durP2;ratioP2;P2;SDS_P1;SDS_P2;PMS_P1;PMS_P2;Temp;Humidity;BMP_temperature;BMP_pressure;BME280_temperature;BME280_humidity;BME280_pressure;Samples;Min_cycle;Max_cycle;Signal;HPM_P1;HPM_P2
2023/12/07 00:01:50;;;;;;;3.67;1.52;;;3.30;99.90;;;;;;5053280;28;20112;-76
2023/12/07 00:04:16;;;;;;;6.57;3.03;;;3.40;99.90;;;;;;5052996;28;20040;-76
2023/12/07 00:06:42;;;;;;;1.45;1.25;;;3.30;99.90;;;;;;5053413;28;20543;-75
2023/12/07 00:09:08;;;;;;;3.35;2.92;;;3.40;99.90;;;;;;5052768;28;20025;-76
2023/12/07 00:11:34;;;;;;;0.82;0.82;;;3.40;99.90;;;;;;5053175;28;20381;-76
2023/12/07 00:14:00;;;;;;;3.65;1.80;;;3.30;99.90;;;;;;5053089;28;20029;-76
2023/12/07 00:16:25;;;;;;;3.00;1.65;;;3.50;99.90;;;;;;5052813;28;20032;-76
2023/12/07 00:18:51;;;;;;;1.27;1.15;;;3.50;99.90;;;;;;5034819;28;20071;-76
2023/12/07 00:21:17;;;;;;;1.40;0.80;;;3.70;99.90;;;;;;5052955;28;20461;-76
2023/12/07 00:23:43;;;;;;;2.28;1.85;;;3.50;99.90;;;;;;5051126;28;20041;-76
2023/12/07 00:26:09;;;;;;;0.28;0.28;;;3.80;99.90;;;;;;5051626;28;20048;-76
2023/12/07 00:28:34;;;;;;;1.55;1.45;;;3.80;99.90;;;;;;5051634;28;20029;-77
2023/12/07 00:31:01;;;;;;;0.17;0.17;;;3.80;99.90;;;;;;5052642;28;20523;-77
2023/12/07 00:33:27;;;;;;;0.10;0.10;;;3.90;99.90;;;;;;5052935;28;20082;-77
2023/12/07 00:35:53;;;;;;;2.78;1.58;;;4.10;99.90;;;;;;5051270;28;20095;-77
2023/12/07 00:38:20;;;;;;;5.18;2.40;;;4.10;99.90;;;;;;5052233;28;20041;-76
2023/12/07 00:40:47;;;;;;;8.98;3.72;;;4.20;99.90;;;;;;5052699;28;20055;-77
2023/12/07 00:43:14;;;;;;;3.15;2.75;;;4.10;99.90;;;;;;5052672;28;20017;-76
2023/12/07 00:45:40;;;;;;;1.98;0.65;;;4.00;99.90;;;;;;5051382;28;20036;-77
2023/12/07 00:48:05;;;;;;;6.30;2.17;;;4.20;99.90;;;;;;5052667;28;20409;-77
2023/12/07 00:50:31;;;;;;;7.63;3.22;;;4.40;99.90;;;;;;5052596;28;20021;-77
2023/12/07 00:52:57;;;;;;;4.25;2.60;;;4.50;99.90;;;;;;5052119;28;20115;-77
2023/12/07 00:55:23;;;;;;;2.47;2.05;;;4.40;99.90;;;;;;5052312;28;20017;-76
2023/12/07 00:57:49;;;;;;;0.65;0.65;;;4.40;99.90;;;;;;5051143;28;20377;-77
2023/12/07 01:00:15;;;;;;;0.20;0.20;;;4.50;99.90;;;;;;5052446;28;20130;-77
2023/12/07 01:02:41;;;;;;;6.63;3.25;;;4.60;99.90;;;;;;5051338;28;20504;-76
2023/12/07 01:05:08;;;;;;;0.30;0.30;;;4.40;99.90;;;;;;5052273;28;20037;-77
2023/12/07 01:07:34;;;;;;;4.07;2.25;;;4.50;99.90;;;;;;5052253;28;20029;-77
2023/12/07 01:10:00;;;;;;;0.52;0.52;;;4.60;99.90;;;;;;5051154;28;20029;-77
2023/12/07 01:12:26;;;;;;;1.08;1.02;;;4.70;99.90;;;;;;5052372;28;20021;-76
2023/12/07 01:14:52;;;;;;;12.20;2.55;;;4.50;99.90;;;;;;5052731;28;20645;-77
2023/12/07 01:17:18;;;;;;;3.22;2.17;;;4.50;99.90;;;;;;5052395;28;20025;-77
2023/12/07 01:19:44;;;;;;;1.17;0.93;;;4.70;99.90;;;;;;5051957;28;20434;-77
2023/12/07 01:22:10;;;;;;;12.70;5.60;;;4.70;99.90;;;;;;5052021;28;20111;-77
2023/12/07 01:24:36;;;;;;;20.42;4.82;;;4.60;99.90;;;;;;5051017;28;20087;-77
2023/12/07 01:27:01;;;;;;;8.30;3.75;;;4.70;99.90;;;;;;5052963;28;20025;-77
2023/12/07 01:29:27;;;;;;;3.15;1.92;;;4.60;99.90;;;;;;5056299;28;20477;-77
2023/12/07 01:31:53;;;;;;;0.20;0.20;;;4.80;99.90;;;;;;5054576;28;20044;-77
2023/12/07 01:34:19;;;;;;;4.28;1.95;;;4.90;99.90;;;;;;5056246;28;20025;-78
2023/12/07 01:36:46;;;;;;;5.32;3.30;;;4.90;99.90;;;;;;5055523;28;20033;-78
2023/12/07 01:39:12;;;;;;;15.73;4.38;;;4.90;99.90;;;;;;5055795;28;20094;-77
2023/12/07 01:41:39;;;;;;;1.45;1.35;;;4.90;99.90;;;;;;5056004;28;20033;-77
2023/12/07 01:44:05;;;;;;;1.20;1.15;;;4.80;99.90;;;;;;5055904;28;20451;-76
2023/12/07 01:46:32;;;;;;;4.75;1.85;;;5.00;99.90;;;;;;5055692;28;20109;-78
2023/12/07 01:48:58;;;;;;;3.60;1.48;;;4.90;99.90;;;;;;5055683;28;20028;-77
2023/12/07 01:51:24;;;;;;;6.18;2.75;;;4.90;99.90;;;;;;5055417;28;20103;-77
2023/12/07 01:53:50;;;;;;;2.65;1.05;;;4.90;99.90;;;;;;5055796;28;20533;-77
2023/12/07 01:56:16;;;;;;;2.38;1.55;;;5.10;99.90;;;;;;5054426;28;20037;-77
2023/12/07 01:58:43;;;;;;;2.70;0.52;;;5.10;99.90;;;;;;5055459;28;20037;-78
2023/12/07 02:01:11;;;;;;;30.80;8.20;;;5.10;99.90;;;;;;5054492;28;20017;-78
2023/12/07 02:03:40;;;;;;;4.60;2.80;;;5.30;99.90;;;;;;5054042;28;20438;-78
2023/12/07 02:06:06;;;;;;;8.55;4.35;;;5.30;99.90;;;;;;5055213;28;20025;-78
2023/12/07 02:08:32;;;;;;;6.10;4.70;;;5.30;99.90;;;;;;5054125;28;20469;-77
2023/12/07 02:10:58;;;;;;;0.80;0.80;;;5.20;99.90;;;;;;5054278;28;20069;-77
2023/12/07 02:13:23;;;;;;;24.75;7.28;;;5.30;99.90;;;;;;5055473;28;20045;-77
2023/12/07 02:15:50;;;;;;;10.38;3.83;;;5.50;99.90;;;;;;5053850;28;20440;-78
2023/12/07 02:18:42;;;;;;;5.82;2.20;;;5.40;99.90;;;;;;5054725;28;20037;-77
2023/12/07 02:21:19;;;;;;;13.88;5.45;;;5.30;99.90;;;;;;5053387;28;20493;-77
2023/12/07 02:23:48;;;;;;;17.42;10.02;;;5.20;99.90;;;;;;5054721;28;20074;-77
2023/12/07 02:26:20;;;;;;;36.15;8.25;;;5.20;99.90;;;;;;5055150;28;20037;-77
2023/12/07 02:28:46;;;;;;;;;;;5.20;99.90;;;;;;5055334;28;20846;-76
2023/12/07 02:31:11;;;;;;;9.95;5.50;;;5.10;99.90;;;;;;5055004;28;19909;-77
2023/12/07 02:33:37;;;;;;;14.43;1.70;;;5.00;99.90;;;;;;5054725;28;20441;-77
2023/12/07 02:36:03;;;;;;;5.13;2.85;;;4.90;99.90;;;;;;5053561;28;20485;-77
2023/12/07 02:38:30;;;;;;;6.32;4.63;;;5.00;99.90;;;;;;5053240;28;20141;-77
2023/12/07 02:40:58;;;;;;;15.98;6.60;;;5.00;99.90;;;;;;5053699;28;20029;-77
2023/12/07 02:43:24;;;;;;;4.72;1.27;;;5.10;99.90;;;;;;5054818;28;20024;-77
2023/12/07 02:45:50;;;;;;;7.65;3.33;;;5.00;99.90;;;;;;5053916;28;20424;-77
2023/12/07 02:48:17;;;;;;;18.98;6.80;;;5.10;99.90;;;;;;5054192;28;20025;-77
2023/12/07 02:50:43;;;;;;;1.55;1.45;;;5.00;99.90;;;;;;5036763;28;20029;-78
2023/12/07 02:53:09;;;;;;;3.63;1.27;;;5.10;99.90;;;;;;5054312;28;20531;-77
2023/12/07 02:55:34;;;;;;;4.03;3.55;;;5.20;99.90;;;;;;5054412;28;20029;-77
2023/12/07 02:58:00;;;;;;;5.75;1.40;;;5.20;99.90;;;;;;5054232;28;20469;-76
2023/12/07 03:00:26;;;;;;;2.78;1.73;;;5.20;99.90;;;;;;5054590;28;20097;-77
2023/12/07 03:02:52;;;;;;;7.05;2.25;;;5.30;99.90;;;;;;5054046;28;20467;-77
2023/12/07 03:05:20;;;;;;;4.15;3.03;;;5.30;99.90;;;;;;5054080;28;20025;-77
2023/12/07 03:07:46;;;;;;;13.93;6.55;;;5.50;99.90;;;;;;5054250;28;20025;-76
2023/12/07 03:10:11;;;;;;;10.73;3.40;;;5.40;99.90;;;;;;5054191;28;20082;-77
2023/12/07 03:12:37;;;;;;;8.68;4.03;;;5.40;99.90;;;;;;5054391;28;20028;-77
2023/12/07 03:15:04;;;;;;;4.65;3.55;;;5.40;99.90;;;;;;5054048;28;20032;-76
2023/12/07 03:17:30;;;;;;;4.25;2.97;;;5.50;99.90;;;;;;5054069;28;20045;-77
2023/12/07 03:19:55;;;;;;;1.50;1.40;;;5.50;99.90;;;;;;5053944;28;20485;-77
2023/12/07 03:22:21;;;;;;;1.75;1.65;;;5.50;99.90;;;;;;5054058;28;20040;-76
2023/12/07 03:24:51;;;;;;;1.88;1.00;;;5.50;99.90;;;;;;5053828;28;20027;-77
2023/12/07 03:27:17;;;;;;;1.95;1.85;;;5.70;99.90;;;;;;5053772;28;20102;-77
2023/12/07 03:29:43;;;;;;;0.30;0.30;;;5.90;99.90;;;;;;5052739;28;20396;-77
2023/12/07 03:32:09;;;;;;;7.97;1.55;;;5.90;99.90;;;;;;5052248;28;20108;-77
2023/12/07 03:34:35;;;;;;;4.68;3.35;;;5.80;99.90;;;;;;5053774;28;20037;-75
2023/12/07 03:37:03;;;;;;;15.25;4.78;;;5.70;99.90;;;;;;5052584;28;20462;-75
2023/12/07 03:39:29;;;;;;;0.00;0.00;;;5.70;99.90;;;;;;5052210;28;20037;-76
2023/12/07 03:41:55;;;;;;;16.90;6.13;;;5.70;99.90;;;;;;5045420;28;20039;-76
2023/12/07 03:44:21;;;;;;;8.18;4.40;;;5.70;99.90;;;;;;5049751;28;20110;-76
2023/12/07 03:46:47;;;;;;;8.32;4.03;;;5.60;99.90;;;;;;5051293;28;20017;-76
2023/12/07 03:49:13;;;;;;;0.98;0.93;;;5.60;99.90;;;;;;5053147;28;20025;-76
2023/12/07 03:51:39;;;;;;;0.80;0.75;;;5.70;99.90;;;;;;5053130;28;20466;-76
2023/12/07 03:54:05;;;;;;;0.20;0.20;;;5.70;99.90;;;;;;5053351;28;20121;-76
2023/12/07 03:56:32;;;;;;;6.82;4.78;;;5.70;99.90;;;;;;5053224;28;20028;-76
2023/12/07 03:58:58;;;;;;;6.72;2.90;;;5.60;99.90;;;;;;5052937;28;20029;-76
2023/12/07 04:01:25;;;;;;;4.40;4.10;;;5.50;99.90;;;;;;5051684;28;20501;-76
2023/12/07 04:03:52;;;;;;;13.63;5.75;;;5.60;99.90;;;;;;5051796;28;20432;-76
2023/12/07 04:06:18;;;;;;;2.25;2.03;;;5.50;99.90;;;;;;5053682;28;20060;-77
2023/12/07 04:08:44;;;;;;;0.20;0.20;;;5.50;99.90;;;;;;5035274;28;20108;-76
2023/12/07 04:11:10;;;;;;;4.40;2.63;;;5.30;99.90;;;;;;5053088;28;20497;-76
2023/12/07 04:13:36;;;;;;;2.42;1.67;;;5.30;99.90;;;;;;5052842;28;20115;-76
2023/12/07 04:16:03;;;;;;;1.17;1.17;;;5.30;99.90;;;;;;5043041;28;20100;-76
2023/12/07 04:18:29;;;;;;;4.95;3.83;;;5.40;99.90;;;;;;5048831;28;20048;-74
2023/12/07 04:20:55;;;;;;;4.20;1.80;;;5.40;99.90;;;;;;5053080;28;20029;-74
2023/12/07 04:23:21;;;;;;;1.70;1.50;;;5.50;99.90;;;;;;5051669;28;20025;-74
2023/12/07 04:25:47;;;;;;;0.52;0.52;;;5.50;99.90;;;;;;5033285;28;20458;-74
2023/12/07 04:28:13;;;;;;;0.40;0.40;;;5.50;99.90;;;;;;5046291;28;20033;-74
2023/12/07 04:30:38;;;;;;;4.72;2.60;;;5.50;99.90;;;;;;5052332;28;20048;-74
2023/12/07 04:33:04;;;;;;;1.63;1.15;;;5.30;99.90;;;;;;5053007;28;20119;-74
2023/12/07 04:35:31;;;;;;;14.35;5.90;;;5.30;99.90;;;;;;5052679;28;20478;-73
2023/12/07 04:37:57;;;;;;;13.15;3.97;;;5.30;99.90;;;;;;5052416;28;20036;-74
2023/12/07 04:40:25;;;;;;;7.93;2.50;;;5.20;99.90;;;;;;5052637;28;20068;-74
2023/12/07 04:42:51;;;;;;;3.75;2.80;;;5.20;99.90;;;;;;5052736;28;20025;-74
2023/12/07 04:45:16;;;;;;;2.15;1.35;;;5.10;99.90;;;;;;5051105;28;20025;-74
2023/12/07 04:47:42;;;;;;;9.77;3.63;;;5.10;99.90;;;;;;5052432;28;20028;-74
2023/12/07 04:50:09;;;;;;;10.75;5.88;;;5.10;99.90;;;;;;5052440;28;20028;-74
2023/12/07 04:52:35;;;;;;;5.88;4.00;;;5.00;99.90;;;;;;5051312;28;20029;-74
2023/12/07 04:55:01;;;;;;;4.55;2.00;;;5.00;99.90;;;;;;5052400;28;20062;-74
2023/12/07 04:57:27;;;;;;;10.52;5.88;;;5.00;99.90;;;;;;5052488;28;20023;-74
2023/12/07 04:59:53;;;;;;;9.05;3.22;;;5.00;99.90;;;;;;5051934;28;20120;-74
2023/12/07 05:02:19;;;;;;;13.48;7.43;;;5.00;99.90;;;;;;5053709;28;20025;-74
2023/12/07 05:04:45;;;;;;;14.02;5.70;;;5.00;99.90;;;;;;5054922;28;20504;-74
2023/12/07 05:07:14;;;;;;;43.22;5.47;;;5.00;99.90;;;;;;5056306;28;20016;-75
2023/12/07 05:09:40;;;;;;;9.50;4.45;;;5.10;99.90;;;;;;5056232;28;20102;-74
2023/12/07 05:12:06;;;;;;;11.40;5.82;;;5.10;99.90;;;;;;5055437;28;20025;-74
2023/12/07 05:14:32;;;;;;;16.13;9.27;;;5.10;99.90;;;;;;5055960;28;20091;-74
2023/12/07 05:16:58;;;;;;;18.45;7.85;;;5.00;99.90;;;;;;5056124;28;20071;-76
2023/12/07 05:19:25;;;;;;;22.88;6.90;;;5.00;99.90;;;;;;5055835;28;20440;-74
2023/12/07 05:21:53;;;;;;;3.90;2.65;;;5.00;99.90;;;;;;5054849;28;20413;-76
2023/12/07 05:24:20;;;;;;;6.18;3.53;;;4.90;99.90;;;;;;5056257;28;20404;-74
2023/12/07 05:26:46;;;;;;;8.95;5.70;;;4.90;99.90;;;;;;5037971;28;20466;-74
2023/12/07 05:29:13;;;;;;;2.75;2.28;;;5.00;99.90;;;;;;5055713;28;20040;-74
2023/12/07 05:31:39;;;;;;;10.70;2.78;;;5.20;99.90;;;;;;5056045;28;20025;-74
2023/12/07 05:34:06;;;;;;;15.35;6.47;;;5.10;99.90;;;;;;5055901;28;20033;-74
2023/12/07 05:36:32;;;;;;;17.05;6.88;;;5.10;99.90;;;;;;5055861;28;20032;-74
2023/12/07 05:38:58;;;;;;;5.30;1.98;;;5.00;99.90;;;;;;5055637;28;20389;-75
2023/12/07 05:41:25;;;;;;;10.20;6.47;;;5.00;99.90;;;;;;5055757;28;20378;-74
2023/12/07 05:43:52;;;;;;;11.18;5.63;;;5.00;99.90;;;;;;5055696;28;20087;-75
2023/12/07 05:46:21;;;;;;;9.55;3.20;;;5.00;99.90;;;;;;5054300;28;20048;-76
2023/12/07 05:48:47;;;;;;;6.18;4.15;;;5.10;99.90;;;;;;5055729;28;20039;-75
2023/12/07 05:51:14;;;;;;;9.60;4.07;;;5.10;99.90;;;;;;5054302;28;20096;-75
2023/12/07 05:53:40;;;;;;;8.95;4.25;;;5.10;99.90;;;;;;5055527;28;20087;-76
2023/12/07 05:56:07;;;;;;;21.83;7.45;;;5.20;99.90;;;;;;5055723;28;20041;-75
2023/12/07 05:58:33;;;;;;;5.63;4.70;;;5.20;99.90;;;;;;5055146;28;20094;-75
2023/12/07 06:01:01;;;;;;;14.80;5.47;;;5.10;99.90;;;;;;5055756;28;20033;-75
2023/12/07 06:03:27;;;;;;;7.95;6.60;;;5.20;99.90;;;;;;5055028;28;20031;-75
2023/12/07 06:05:53;;;;;;;3.33;2.72;;;5.20;99.90;;;;;;5054205;28;20127;-75
2023/12/07 06:08:18;;;;;;;8.70;5.60;;;5.30;99.90;;;;;;5055119;28;20051;-75
2023/12/07 06:10:44;;;;;;;9.50;3.20;;;5.20;99.90;;;;;;5055537;28;20064;-75
2023/12/07 06:13:10;;;;;;;5.97;3.92;;;5.10;99.90;;;;;;5053361;28;20032;-75
2023/12/07 06:15:36;;;;;;;23.65;6.15;;;5.10;99.90;;;;;;5055064;28;20119;-75
2023/12/07 06:18:03;;;;;;;8.75;4.15;;;5.20;99.90;;;;;;5054155;28;20108;-75
2023/12/07 06:20:29;;;;;;;17.48;4.40;;;5.20;99.90;;;;;;5055714;28;20091;-75
2023/12/07 06:22:55;;;;;;;10.35;5.20;;;5.20;99.90;;;;;;5055240;28;20025;-76
2023/12/07 06:25:21;;;;;;;7.55;5.53;;;5.40;99.90;;;;;;5054880;28;20478;-75
2023/12/07 06:27:47;;;;;;;9.77;3.55;;;5.40;99.90;;;;;;5054967;28;20523;-76
2023/12/07 06:30:13;;;;;;;11.20;3.30;;;5.40;99.90;;;;;;5054946;28;20029;-78
2023/12/07 06:32:39;;;;;;;4.80;4.15;;;5.50;99.90;;;;;;5054797;28;20370;-77
2023/12/07 06:35:06;;;;;;;17.67;8.60;;;5.40;99.90;;;;;;5055012;28;20039;-77
2023/12/07 06:37:32;;;;;;;18.98;4.28;;;5.30;99.90;;;;;;5054776;28;20154;-77
2023/12/07 06:39:59;;;;;;;14.40;6.95;;;5.30;99.90;;;;;;5054654;28;20135;-77
2023/12/07 06:42:26;;;;;;;0.68;0.65;;;5.30;99.90;;;;;;5054826;28;20473;-77
2023/12/07 06:44:52;;;;;;;12.05;6.15;;;5.30;99.90;;;;;;5054477;28;20379;-77
2023/12/07 06:47:19;;;;;;;10.18;2.88;;;5.20;99.90;;;;;;5054860;28;20027;-77
2023/12/07 06:49:46;;;;;;;8.32;5.10;;;5.20;99.90;;;;;;5054451;28;20103;-77
2023/12/07 06:52:12;;;;;;;2.25;1.58;;;5.10;99.90;;;;;;5054691;28;20055;-77
2023/12/07 06:54:40;;;;;;;12.85;4.70;;;4.90;99.90;;;;;;5054102;28;20025;-77
2023/12/07 06:57:06;;;;;;;1.35;1.27;;;5.00;99.90;;;;;;5054712;28;20024;-77
2023/12/07 06:59:33;;;;;;;5.53;3.85;;;5.10;99.90;;;;;;5053116;28;20432;-77
2023/12/07 07:01:58;;;;;;;7.65;2.65;;;5.10;99.90;;;;;;5036722;28;20393;-77
2023/12/07 07:04:24;;;;;;;7.65;3.08;;;5.00;99.90;;;;;;5054263;28;20032;-77
2023/12/07 07:06:51;;;;;;;2.40;1.80;;;4.90;99.90;;;;;;5054191;28;20032;-77
2023/12/07 07:09:18;;;;;;;9.63;5.97;;;5.00;99.90;;;;;;5053949;28;20040;-76
2023/12/07 07:11:48;;;;;;;6.32;2.67;;;4.90;99.90;;;;;;5054011;28;20626;-76
2023/12/07 07:14:14;;;;;;;10.02;6.25;;;4.90;99.90;;;;;;5054159;28;20128;-77
2023/12/07 07:16:40;;;;;;;2.60;2.40;;;4.90;99.90;;;;;;5053950;28;20187;-76
2023/12/07 07:19:06;;;;;;;4.63;2.75;;;5.10;99.90;;;;;;5052828;28;20033;-77
2023/12/07 07:21:32;;;;;;;4.00;2.95;;;5.10;99.90;;;;;;5053973;28;20025;-77
2023/12/07 07:23:58;;;;;;;0.75;0.55;;;5.00;99.90;;;;;;5053379;28;20033;-77
2023/12/07 07:26:25;;;;;;;3.90;2.45;;;4.90;99.90;;;;;;5053262;28;20053;-77
2023/12/07 07:28:52;;;;;;;2.42;1.15;;;4.80;99.90;;;;;;5051826;28;20067;-76
2023/12/07 07:31:18;;;;;;;0.32;0.32;;;4.90;99.90;;;;;;5053974;28;20423;-77
2023/12/07 07:33:44;;;;;;;2.55;2.35;;;5.00;99.90;;;;;;5053310;28;20128;-76
2023/12/07 07:36:11;;;;;;;0.55;0.55;;;5.00;99.90;;;;;;5053550;28;20025;-77
2023/12/07 07:38:38;;;;;;;0.52;0.50;;;4.90;99.90;;;;;;5052401;28;21457;-77
2023/12/07 07:41:04;;;;;;;9.55;3.33;;;4.90;99.90;;;;;;5059923;28;20469;-76
2023/12/07 07:43:30;;;;;;;5.53;3.13;;;4.90;99.90;;;;;;5039807;28;20112;-77
2023/12/07 07:45:56;;;;;;;0.57;0.57;;;4.80;99.90;;;;;;5058899;28;20493;-77
2023/12/07 07:48:22;;;;;;;3.83;1.75;;;4.80;99.90;;;;;;5056560;28;20028;-76
2023/12/07 07:50:47;;;;;;;7.63;1.75;;;4.70;99.90;;;;;;5053847;28;20420;-76
2023/12/07 07:53:13;;;;;;;0.13;0.13;;;4.80;99.90;;;;;;5059866;28;20029;-77
2023/12/07 07:55:39;;;;;;;0.43;0.43;;;4.90;99.90;;;;;;5053314;28;20029;-77
2023/12/07 07:58:05;;;;;;;0.45;0.45;;;4.80;99.90;;;;;;5057873;28;20477;-76
2023/12/07 08:00:32;;;;;;;0.00;0.00;;;4.90;99.90;;;;;;5050084;28;20425;-76
2023/12/07 08:02:59;;;;;;;0.00;0.00;;;4.80;99.90;;;;;;5052937;28;20083;-78
2023/12/07 08:05:25;;;;;;;0.00;0.00;;;4.90;99.90;;;;;;5054373;28;20120;-76
2023/12/07 08:07:51;;;;;;;0.00;0.00;;;4.90;99.90;;;;;;5056966;28;20048;-78
2023/12/07 08:10:17;;;;;;;3.78;1.92;;;5.00;99.90;;;;;;5050414;28;20078;-77
2023/12/07 08:12:43;;;;;;;0.80;0.80;;;5.00;99.90;;;;;;5054667;28;20040;-76
2023/12/07 08:15:10;;;;;;;0.30;0.30;;;5.00;99.90;;;;;;5059311;28;20481;-76
2023/12/07 08:17:43;;;;;;;1.63;1.52;;;5.00;99.90;;;;;;5055767;28;20024;-77
2023/12/07 08:20:15;;;;;;;0.68;0.68;;;5.10;99.90;;;;;;5053249;28;20361;-76
2023/12/07 08:22:41;;;;;;;1.48;1.38;;;5.10;99.90;;;;;;5055863;28;20056;-77
2023/12/07 08:25:09;;;;;;;8.65;5.28;;;5.20;99.90;;;;;;5054363;28;20079;-76
2023/12/07 08:27:37;;;;;;;5.60;3.97;;;5.10;99.90;;;;;;5058510;28;20179;-77
2023/12/07 08:30:03;;;;;;;0.32;0.32;;;5.00;99.90;;;;;;5059592;28;20485;-77
2023/12/07 08:32:29;;;;;;;5.38;3.70;;;5.00;99.90;;;;;;5059575;28;20024;-76
2023/12/07 08:34:55;;;;;;;0.90;0.85;;;5.00;99.90;;;;;;5054569;28;20044;-77
2023/12/07 08:37:21;;;;;;;0.95;0.95;;;5.10;99.90;;;;;;5054113;28;20020;-76
2023/12/07 08:39:46;;;;;;;1.02;0.93;;;5.00;99.90;;;;;;5058431;28;20028;-76
2023/12/07 08:42:12;;;;;;;4.55;2.22;;;4.90;99.90;;;;;;5057243;28;20401;-76
2023/12/07 08:44:38;;;;;;;7.03;3.58;;;5.00;99.90;;;;;;5055340;28;20052;-76
2023/12/07 08:47:05;;;;;;;1.25;1.23;;;5.10;99.90;;;;;;5053997;28;20025;-77
2023/12/07 08:49:30;;;;;;;1.80;1.70;;;5.10;99.90;;;;;;5055914;28;20473;-76
2023/12/07 08:51:57;;;;;;;4.82;2.97;;;5.30;99.90;;;;;;5030980;28;20036;-77
2023/12/07 08:54:23;;;;;;;1.45;1.23;;;5.40;99.90;;;;;;5059000;28;20035;-77
2023/12/07 08:56:49;;;;;;;2.83;1.95;;;5.50;99.90;;;;;;5042511;28;20470;-76
2023/12/07 08:59:14;;;;;;;1.27;1.15;;;5.60;99.90;;;;;;5046995;28;20041;-77
2023/12/07 09:01:40;;;;;;;2.72;1.92;;;5.50;99.90;;;;;;5050638;28;20032;-76
2023/12/07 09:04:06;;;;;;;5.07;3.08;;;5.70;99.90;;;;;;5055584;28;20040;-76
2023/12/07 09:06:32;;;;;;;12.07;1.67;;;5.40;99.90;;;;;;5060572;28;20021;-76
2023/12/07 09:08:58;;;;;;;4.75;2.38;;;5.30;99.90;;;;;;5056115;28;20029;-76
2023/12/07 09:11:23;;;;;;;1.38;1.13;;;5.30;99.90;;;;;;5056775;28;20040;-76
2023/12/07 09:13:50;;;;;;;9.55;5.20;;;5.40;99.90;;;;;;5052833;28;20021;-77
2023/12/07 09:16:16;;;;;;;1.45;1.10;;;5.20;99.90;;;;;;5062278;28;20040;-76
2023/12/07 09:18:42;;;;;;;1.15;0.85;;;5.10;99.90;;;;;;5060582;28;20036;-76
2023/12/07 09:21:08;;;;;;;0.20;0.20;;;5.10;99.90;;;;;;5058324;28;20150;-76
2023/12/07 09:23:35;;;;;;;7.45;1.95;;;5.20;99.90;;;;;;5053922;28;20122;-76
2023/12/07 09:26:01;;;;;;;0.98;0.85;;;5.30;99.90;;;;;;5058709;28;20028;-77
2023/12/07 09:28:26;;;;;;;3.83;1.55;;;5.40;99.90;;;;;;5053560;28;20052;-77
2023/12/07 09:30:52;;;;;;;4.03;1.60;;;5.40;99.90;;;;;;5053718;28;20565;-78
2023/12/07 09:33:19;;;;;;;0.63;0.63;;;5.40;99.90;;;;;;5061019;28;20470;-78
2023/12/07 09:35:44;;;;;;;0.28;0.28;;;5.30;99.90;;;;;;5050909;28;20495;-77
2023/12/07 09:38:10;;;;;;;10.25;3.55;;;5.50;99.90;;;;;;5052004;28;20025;-77
2023/12/07 09:40:36;;;;;;;1.38;1.27;;;5.60;99.90;;;;;;5058983;28;20037;-77
2023/12/07 09:43:02;;;;;;;5.70;2.78;;;5.60;99.90;;;;;;5057943;28;20103;-75
2023/12/07 09:45:29;;;;;;;5.22;2.80;;;5.60;99.90;;;;;;5058404;28;20081;-77
2023/12/07 09:47:55;;;;;;;1.00;1.00;;;5.60;99.90;;;;;;5055610;28;20035;-75
2023/12/07 09:50:25;;;;;;;8.40;2.83;;;5.50;99.90;;;;;;5055165;28;20037;-75
2023/12/07 09:52:55;;;;;;;0.40;0.40;;;5.50;99.90;;;;;;5054506;28;20021;-76
2023/12/07 09:55:22;;;;;;;3.25;2.53;;;5.70;99.90;;;;;;5059964;28;20078;-75
2023/12/07 09:57:48;;;;;;;5.20;3.75;;;5.70;99.90;;;;;;5055105;28;20505;-74
2023/12/07 10:00:15;;;;;;;4.75;4.10;;;5.80;99.90;;;;;;5057414;28;20036;-75
2023/12/07 10:02:42;;;;;;;2.47;1.67;;;6.00;99.90;;;;;;5055266;28;20018;-76
2023/12/07 10:05:19;;;;;;;1.00;0.65;;;6.30;99.90;;;;;;5056592;28;20401;-75
2023/12/07 10:07:49;;;;;;;1.17;1.08;;;6.50;99.90;;;;;;5058492;28;20033;-75
2023/12/07 10:10:17;;;;;;;2.38;1.60;;;6.40;99.90;;;;;;5058036;28;20035;-76
2023/12/07 10:12:58;;;;;;;1.58;1.00;;;6.30;99.90;;;;;;5055368;28;20466;-75
2023/12/07 10:15:25;;;;;;;14.75;5.22;;;6.20;99.90;;;;;;5051669;28;20029;-75
2023/12/07 10:17:58;;;;;;;2.22;1.65;;;6.40;99.90;;;;;;5054499;28;20116;-75
2023/12/07 10:20:25;;;;;;;0.75;0.75;;;6.50;99.90;;;;;;5032946;28;20102;-76
2023/12/07 10:23:03;;;;;;;7.20;3.22;;;6.60;99.90;;;;;;5055742;28;20417;-77
2023/12/07 10:25:34;;;;;;;2.33;1.98;;;6.70;99.90;;;;;;5057384;28;20059;-75
2023/12/07 10:28:01;;;;;;;3.23;2.37;;;6.70;99.90;;;;;;5058073;28;20028;-77
2023/12/07 10:30:27;;;;;;;2.47;2.28;;;6.30;99.90;;;;;;5066466;28;20142;-77
2023/12/07 10:32:53;;;;;;;6.32;1.80;;;6.20;99.90;;;;;;5063449;28;20590;-77
2023/12/07 10:35:20;;;;;;;3.13;1.55;;;6.10;99.90;;;;;;5063984;28;20238;-77
2023/12/07 10:37:46;;;;;;;0.73;0.65;;;6.20;99.90;;;;;;5056002;28;20025;-77
2023/12/07 10:40:12;;;;;;;6.57;2.90;;;6.40;99.90;;;;;;5058860;28;20047;-77
2023/12/07 10:42:41;;;;;;;1.23;0.88;;;6.80;99.90;;;;;;5056292;28;20456;-77
2023/12/07 10:45:07;;;;;;;6.28;3.50;;;7.10;99.90;;;;;;5055211;28;20032;-77
2023/12/07 10:47:39;;;;;;;1.30;1.13;;;7.30;99.90;;;;;;5053184;28;20059;-77
2023/12/07 10:50:10;;;;;;;6.07;1.92;;;7.30;99.90;;;;;;5058145;28;20028;-76
2023/12/07 10:52:54;;;;;;;10.45;4.18;;;7.30;99.90;;;;;;5071934;28;20090;-76
2023/12/07 10:55:29;;;;;;;7.05;3.78;;;7.10;99.90;;;;;;5060590;28;20063;-77
2023/12/07 10:57:55;;;;;;;4.13;1.75;;;6.90;99.90;;;;;;5061274;28;20455;-77
2023/12/07 11:00:27;;;;;;;1.08;0.95;;;6.90;99.90;;;;;;5038490;28;20034;-76
2023/12/07 11:02:53;;;;;;;2.13;1.80;;;7.10;99.90;;;;;;5049542;28;20044;-76
2023/12/07 11:05:21;;;;;;;26.70;2.42;;;7.20;99.90;;;;;;5041191;28;20512;-76
2023/12/07 11:08:06;;;;;;;3.03;1.70;;;7.50;99.90;;;;;;5062727;28;20027;-76
2023/12/07 11:10:43;;;;;;;1.88;1.75;;;7.60;99.90;;;;;;5042970;28;20022;-77
2023/12/07 11:13:18;;;;;;;1.38;1.27;;;7.70;99.90;;;;;;5054838;28;20040;-77
2023/12/07 11:15:44;;;;;;;1.70;1.05;;;7.80;99.90;;;;;;5048430;28;20121;-78
2023/12/07 11:18:13;;;;;;;1.42;1.33;;;7.60;99.90;;;;;;5062746;28;20064;-77
2023/12/07 11:20:44;;;;;;;10.45;2.50;;;7.50;99.90;;;;;;5059301;28;20025;-77
2023/12/07 11:23:10;;;;;;;0.10;0.10;;;7.40;99.90;;;;;;5057386;28;20083;-77
2023/12/07 11:25:39;;;;;;;1.50;1.40;;;7.70;99.90;;;;;;5055327;28;20033;-78
2023/12/07 11:28:07;;;;;;;1.65;1.55;;;7.70;99.90;;;;;;5053488;28;20039;-77
2023/12/07 11:30:35;;;;;;;0.47;0.22;;;7.90;99.90;;;;;;5064782;28;20052;-77
2023/12/07 11:33:04;;;;;;;31.63;2.05;;;7.90;99.90;;;;;;5063153;28;20492;-77
2023/12/07 11:35:30;;;;;;;1.42;1.15;;;7.80;99.90;;;;;;5063290;28;20044;-75
2023/12/07 11:38:11;;;;;;;0.75;0.75;;;7.90;99.90;;;;;;5053975;28;20033;-76
2023/12/07 11:40:40;;;;;;;1.85;1.40;;;8.40;99.90;;;;;;5066395;28;20044;-78
2023/12/07 11:43:06;;;;;;;0.30;0.30;;;8.90;99.90;;;;;;5062745;28;20029;-77
2023/12/07 11:45:42;;;;;;;0.85;0.85;;;8.70;99.90;;;;;;5061345;28;20500;-74
2023/12/07 11:48:12;;;;;;;1.25;0.95;;;8.70;99.90;;;;;;5055521;28;20395;-76
2023/12/07 11:50:58;;;;;;;1.60;1.05;;;8.60;99.90;;;;;;5052083;28;20029;-76
2023/12/07 11:53:29;;;;;;;1.92;1.77;;;8.40;99.90;;;;;;5064344;28;20028;-77
2023/12/07 11:55:57;;;;;;;1.85;1.08;;;8.30;99.90;;;;;;5058339;28;20063;-77
2023/12/07 11:58:24;;;;;;;2.63;2.47;;;8.20;99.90;;;;;;5052544;28;20033;-74
2023/12/07 12:00:53;;;;;;;2.22;0.80;;;8.30;99.90;;;;;;5052475;28;20033;-76
2023/12/07 12:03:19;;;;;;;2.50;1.35;;;8.30;99.90;;;;;;5051176;28;20476;-76
2023/12/07 12:05:45;;;;;;;3.00;2.25;;;8.00;99.90;;;;;;5048132;28;20033;-78
2023/12/07 12:08:11;;;;;;;1.50;0.98;;;7.70;99.90;;;;;;5051668;28;20729;-78
2023/12/07 12:10:42;;;;;;;2.55;1.55;;;7.80;99.90;;;;;;5052188;28;20025;-77
2023/12/07 12:13:08;;;;;;;2.10;1.90;;;7.60;99.90;;;;;;5050988;28;20438;-76
2023/12/07 12:15:34;;;;;;;1.45;1.27;;;7.40;99.90;;;;;;5048820;28;20090;-77
2023/12/07 12:18:01;;;;;;;0.60;0.60;;;7.40;99.90;;;;;;5051685;28;20537;-76
2023/12/07 12:20:28;;;;;;;0.35;0.35;;;7.30;99.90;;;;;;5048929;28;20048;-76
2023/12/07 12:22:54;;;;;;;2.25;1.83;;;7.50;99.90;;;;;;5051714;28;20085;-76
2023/12/07 12:25:25;;;;;;;0.40;0.40;;;7.50;99.90;;;;;;5048892;28;20469;-76
2023/12/07 12:27:55;;;;;;;2.28;1.77;;;7.30;99.90;;;;;;5052581;28;20037;-76
2023/12/07 12:30:25;;;;;;;1.63;1.25;;;7.30;99.90;;;;;;5052743;28;20055;-76
2023/12/07 12:32:51;;;;;;;2.40;1.35;;;7.30;99.90;;;;;;5051105;28;20511;-76
2023/12/07 12:35:18;;;;;;;1.15;0.80;;;7.30;99.90;;;;;;5052156;28;20469;-76
2023/12/07 12:37:45;;;;;;;0.63;0.38;;;7.20;99.90;;;;;;5052363;28;20086;-76
2023/12/07 12:40:12;;;;;;;1.75;1.65;;;7.30;99.90;;;;;;5042932;28;20041;-76
2023/12/07 12:42:38;;;;;;;0.35;0.35;;;7.30;99.90;;;;;;5048837;28;20032;-76
2023/12/07 12:45:25;;;;;;;2.00;1.88;;;7.50;99.90;;;;;;5052965;28;20032;-76
2023/12/07 12:47:50;;;;;;;0.10;0.10;;;7.50;99.90;;;;;;5052225;28;20438;-76
2023/12/07 12:50:38;;;;;;;3.78;0.73;;;7.50;99.90;;;;;;5052642;28;20071;-76
2023/12/07 12:53:09;;;;;;;0.20;0.20;;;7.50;99.90;;;;;;5052433;28;20024;-76
2023/12/07 12:55:38;;;;;;;2.30;1.85;;;7.50;99.90;;;;;;5052421;28;20029;-76